createdAt,value
2018-01-24T13:26:28.896Z,12.78
2018-01-24T13:29:01.895Z,13.29
2018-01-24T13:31:33.436Z,14.21
2018-01-24T13:34:10.111Z,14.25
2018-01-24T13:36:41.629Z,14.24
2018-01-24T13:39:13.223Z,14.62
2018-01-24T13:41:44.531Z,14.95
2018-01-24T13:44:18.971Z,14.82
2018-01-24T13:46:51.466Z,15.37
2018-01-24T13:49:26.272Z,15.53
2018-01-24T13:51:59.364Z,15.64
2018-01-24T13:54:33.669Z,15.31
2018-01-24T13:57:09.771Z,15.39
2018-01-24T13:59:44.332Z,15.00
2018-01-24T14:02:17.595Z,15.28
2018-01-24T14:04:49.410Z,15.10
2018-01-24T14:07:21.446Z,14.95
2018-01-24T14:10:04.661Z,15.16
2018-01-24T14:12:38.050Z,15.16
2018-01-24T14:15:20.560Z,15.23
2018-01-24T14:17:53.406Z,15.10
2018-01-24T14:20:26.875Z,15.26
2018-01-24T14:22:58.299Z,15.09
2018-01-24T14:25:33.323Z,14.71
2018-01-24T14:28:05.070Z,14.67
2018-01-24T14:30:37.062Z,14.66
2018-01-24T14:33:08.798Z,14.44
2018-01-24T14:35:40.128Z,14.72
2018-01-24T14:38:11.667Z,14.57
2018-01-24T14:40:42.853Z,14.36
2018-01-24T14:43:14.061Z,14.34
2018-01-24T14:45:45.622Z,14.51
2018-01-24T14:48:16.844Z,14.07
2018-01-24T14:50:48.443Z,13.86
2018-01-24T14:53:20.356Z,13.59
2018-01-24T14:55:52.730Z,13.69
2018-01-24T14:58:24.206Z,13.69
2018-01-24T15:00:56.192Z,13.76
2018-01-24T15:03:27.366Z,13.84
2018-01-24T15:05:59.247Z,13.71
2018-01-24T15:08:32.953Z,13.67
2018-01-24T15:11:06.900Z,13.65
2018-01-24T15:13:39.185Z,13.42
2018-01-24T15:16:11.134Z,13.33
2018-01-24T15:18:43.384Z,13.48
2018-01-24T15:21:14.755Z,13.28
2018-01-24T15:23:46.546Z,13.42
2018-01-24T15:26:18.916Z,13.35
2018-01-24T15:28:50.711Z,13.05
2018-01-24T15:31:22.409Z,13.22
2018-01-24T15:33:54.221Z,13.38
2018-01-24T15:36:25.880Z,13.34
2018-01-24T15:38:58.240Z,13.39
2018-01-24T15:41:32.569Z,13.03
2018-01-24T15:44:03.992Z,13.01
2018-01-24T15:46:35.754Z,12.97
2018-01-24T15:49:07.349Z,12.98
2018-01-24T15:51:39.453Z,13.13
2018-01-24T15:54:11.349Z,13.12
2018-01-24T15:56:42.804Z,12.86
2018-01-24T15:59:16.389Z,13.03
2018-01-24T16:01:48.028Z,13.35
2018-01-24T16:04:19.698Z,13.49
2018-01-24T16:06:51.406Z,13.59
2018-01-24T16:09:23.365Z,13.58
2018-01-24T16:11:55.487Z,13.63
2018-01-24T16:14:30.471Z,13.88
2018-01-24T16:17:11.306Z,13.64
2018-01-24T16:19:46.695Z,13.70
2018-01-24T16:22:30.295Z,13.57
2018-01-24T16:25:01.902Z,13.37
2018-01-24T16:27:34.249Z,12.93
2018-01-24T16:30:06.488Z,13.58
2018-01-24T16:32:38.054Z,13.81
2018-01-24T16:35:12.628Z,13.92
2018-01-24T16:37:45.568Z,13.79
2018-01-24T16:40:17.931Z,14.03
2018-01-24T16:42:48.997Z,14.06
2018-01-24T16:45:21.364Z,14.35
2018-01-24T16:47:53.591Z,14.27
2018-01-24T16:50:29.958Z,14.09
2018-01-24T16:53:02.978Z,13.87
2018-01-24T16:55:35.419Z,13.94
2018-01-24T16:58:10.078Z,13.61
2018-01-24T17:00:41.603Z,13.27
2018-01-24T17:03:12.860Z,13.28
2018-01-24T17:05:45.222Z,13.62
2018-01-24T17:08:20.258Z,13.59
2018-01-24T17:10:52.574Z,13.64
2018-01-24T17:13:28.602Z,13.88
2018-01-24T17:16:01.797Z,13.70
2018-01-24T17:18:35.069Z,13.98
2018-01-24T17:21:07.714Z,13.80
2018-01-24T17:23:40.045Z,13.64
2018-01-24T17:26:12.559Z,13.11
2018-01-24T17:28:44.660Z,13.33
2018-01-24T17:31:18.074Z,13.39
2018-01-24T17:33:51.892Z,13.69
2018-01-24T17:36:28.765Z,13.60
2018-01-24T17:39:00.938Z,13.35
2018-01-24T17:41:35.698Z,12.87
2018-01-24T17:44:08.159Z,13.21
2018-01-24T17:46:41.608Z,13.24
2018-01-24T17:49:14.261Z,12.91
2018-01-24T17:51:45.975Z,12.95
2018-01-24T17:54:17.802Z,12.85
2018-01-24T17:56:49.600Z,12.93
2018-01-24T17:59:29.665Z,12.56
2018-01-24T18:02:01.722Z,12.65
2018-01-24T18:04:35.358Z,12.58
2018-01-24T18:07:08.772Z,12.73
2018-01-24T18:09:41.664Z,12.77
2018-01-24T18:12:18.605Z,12.83
2018-01-24T18:14:51.166Z,12.97
2018-01-24T18:17:28.979Z,12.76
2018-01-24T18:20:04.372Z,12.64
2018-01-24T18:22:38.015Z,12.76
2018-01-24T18:27:46.273Z,12.71
2018-01-24T18:32:55.939Z,12.61
2018-01-24T18:35:27.429Z,12.65
2018-01-24T18:37:59.206Z,12.31
2018-01-24T18:40:33.432Z,12.61
2018-01-24T18:43:04.700Z,12.31
2018-01-24T18:45:37.033Z,12.32
2018-01-24T18:48:09.717Z,12.34
2018-01-24T18:50:41.383Z,12.43
2018-01-24T18:53:13.874Z,12.76
2018-01-24T18:55:46.605Z,12.59
2018-01-24T18:58:18.930Z,12.74
2018-01-24T19:00:50.936Z,12.66
2018-01-24T19:03:22.996Z,12.94
2018-01-24T19:05:54.836Z,13.20
2018-01-24T19:08:26.711Z,12.96
2018-01-24T19:11:00.871Z,13.16
2018-01-24T19:13:35.140Z,13.14
2018-01-24T19:16:06.777Z,13.10
2018-01-24T19:18:38.316Z,13.13
2018-01-24T19:21:10.212Z,13.05
2018-01-24T19:23:44.448Z,12.96
2018-01-24T19:26:20.829Z,13.04
2018-01-24T19:28:55.114Z,13.07
2018-01-24T19:31:38.113Z,13.33
2018-01-24T19:34:10.703Z,12.71
2018-01-24T19:36:46.847Z,12.72
2018-01-24T19:39:19.895Z,12.89
2018-01-24T19:41:53.352Z,12.71
2018-01-24T19:44:28.798Z,13.13
2018-01-24T19:59:55.686Z,12.52
2018-01-24T20:02:47.573Z,12.30
2018-01-24T20:05:19.683Z,12.66
2018-01-24T20:07:52.408Z,12.61
2018-01-24T20:10:28.766Z,12.58
2018-01-24T20:13:01.197Z,12.44
2018-01-24T20:15:34.011Z,12.46
2018-01-24T20:18:06.299Z,12.43
2018-01-24T20:20:38.667Z,12.37
2018-01-24T20:23:11.806Z,12.18
2018-01-24T20:25:46.273Z,12.07
2018-01-24T20:28:17.899Z,12.36
2018-01-24T20:30:50.347Z,12.36
2018-01-24T20:33:22.730Z,12.62
2018-01-24T20:35:54.902Z,12.58
2018-01-24T20:38:28.616Z,12.43
2018-01-24T20:41:00.832Z,12.04
2018-01-24T20:43:35.030Z,12.22
2018-01-24T20:46:08.241Z,12.24
2018-01-24T20:48:40.041Z,12.46
2018-01-24T20:51:12.831Z,12.34
2018-01-24T20:53:44.901Z,12.34
2018-01-24T20:56:19.304Z,12.50
2018-01-24T20:58:52.036Z,12.57
2018-01-24T21:01:26.418Z,12.32
2018-01-24T21:04:00.657Z,12.21
2018-01-24T21:06:34.187Z,12.17
2018-01-24T21:09:10.713Z,12.35
2018-01-24T21:11:42.413Z,12.18
2018-01-24T21:14:15.548Z,12.45
2018-01-24T21:16:47.156Z,12.73
2018-01-24T21:19:19.226Z,12.41
2018-01-24T21:21:50.790Z,12.54
2018-01-24T21:24:23.501Z,12.30
2018-01-24T21:26:56.714Z,12.35
2018-01-24T21:30:40.456Z,11.98
2018-01-24T21:33:21.547Z,12.24
2018-01-24T21:36:03.689Z,12.62
2018-01-24T21:38:35.023Z,12.78
2018-01-24T21:41:08.856Z,12.61
2018-01-24T21:43:40.178Z,12.54
2018-01-24T21:46:14.320Z,12.51
2018-01-24T21:48:50.328Z,12.73
2018-01-24T21:51:23.343Z,12.54
2018-01-24T21:53:56.255Z,12.74
2018-01-24T21:56:37.042Z,12.78
2018-01-24T21:59:11.673Z,12.28
2018-01-24T22:01:44.374Z,12.46
2018-01-24T22:04:17.788Z,12.54
2018-01-24T22:06:50.391Z,12.65
2018-01-24T22:09:22.491Z,12.51
2018-01-24T22:11:55.390Z,12.37
2018-01-24T22:14:26.859Z,12.29
2018-01-24T22:16:59.152Z,12.22
2018-01-24T22:19:31.990Z,12.15
2018-01-24T22:22:04.135Z,12.26
2018-01-24T22:24:36.220Z,12.10
2018-01-24T22:27:07.994Z,12.28
2018-01-24T22:29:39.862Z,12.39
2018-01-24T22:32:11.844Z,12.41
2018-01-24T22:34:44.768Z,12.46
2018-01-24T22:37:16.010Z,12.42
2018-01-24T22:39:47.558Z,12.61
2018-01-24T22:42:18.964Z,12.37
2018-01-24T22:44:50.867Z,12.53
2018-01-24T22:47:25.580Z,12.34
2018-01-24T22:49:58.818Z,12.39
2018-01-24T22:52:32.956Z,12.16
2018-01-24T22:55:05.271Z,12.31
